CW1238 Weather Reports


Display with metric or nautical units.
time (UTC)temp
F
wind
direction
speed
MPH
gust
MPH
rain 1hr
in
rain 24hr
in
rain mn
in
humidity
%
barometer
mb
20210925233904 67 338 0.0 0.0 0.00 0.00 2.23 37 1013.7
20210925231904 68 292 0.0 2.0 0.00 0.00 2.23 36 1013.7
20210925231024 69 315 2.0 2.0 0.00 0.00 2.23 36 1013.7
20210925225844 70 315 2.0 3.0 0.00 0.00 2.23 35 1013.7
20210925225344 70 225 0.0 4.0 0.00 0.00 2.23 35 1013.7
20210925224844 70 338 4.0 4.0 0.00 0.00 2.23 35 1013.7
20210925224344 70 248 3.0 5.0 0.00 0.00 2.23 34 1013.7
20210925223424 70 68 2.0 8.0 0.00 0.00 2.23 34 1013.7
20210925222343 70 292 3.0 4.0 0.00 0.00 2.23 35 1013.7
20210925221343 71 202 3.0 4.0 0.00 0.00 2.23 35 1013.7
20210925220343 71 225 4.0 4.0 0.00 0.00 2.23 34 1013.7
20210925215843 71 225 4.0 9.0 0.00 0.00 2.23 33 1013.7
20210925215343 71 338 3.0 9.0 0.00 0.00 2.23 34 1013.7
20210925214844 71 225 4.0 9.0 0.00 0.00 2.23 34 1013.7
20210925214403 71 338 3.0 4.0 0.00 0.00 2.23 34 1013.7
20210925213843 71 112 0.0 7.0 0.00 0.00 2.23 34 1013.7
20210925212843 70 248 0.0 5.0 0.00 0.00 2.23 34 1013.7
20210925212343 70 270 2.0 5.0 0.00 0.00 2.23 34 1013.7
20210925211843 70 292 3.0 9.0 0.00 0.00 2.23 33 1013.7
20210925211423 70 202 8.0 9.0 0.00 0.00 2.23 34 1013.7
20210925205923 71 202 3.0 4.0 0.00 0.00 2.23 35 1013.7
20210925205403 71 202 7.0 13.0 0.00 0.00 2.23 34 1013.7
20210925204904 72 202 6.0 8.0 0.00 0.00 2.23 34 1013.7
20210925204342 71 248 6.0 6.0 0.00 0.00 2.23 34 1013.7
20210925203343 71 270 4.0 11.0 0.00 0.00 2.23 34 1012.8
20210925201922 70 248 5.0 10.0 0.00 0.00 2.23 35 1012.8
20210925201422 70 292 5.0 9.0 0.00 0.00 2.23 35 1012.8
20210925200842 70 248 5.0 9.0 0.00 0.00 2.23 35 1012.8
20210925195922 70 202 3.0 5.0 0.00 0.00 2.23 36 1012.8
20210925195342 69 0 2.0 5.0 0.00 0.00 2.23 37 1013.7
20210925194842 69 180 3.0 15.0 0.00 0.00 2.23 36 1013.7
20210925194342 69 22 5.0 7.0 0.00 0.00 2.23 36 1013.7
20210925193902 69 180 4.0 6.0 0.00 0.00 2.23 36 1013.7
20210925193342 69 202 3.0 7.0 0.00 0.00 2.23 36 1013.7
20210925192842 69 202 4.0 7.0 0.00 0.00 2.23 37 1013.7
20210925191902 70 338 4.0 7.0 0.00 0.00 2.23 37 1014.7
20210925190422 69 225 8.0 8.0 0.00 0.00 2.23 37 1014.7
20210925185842 69 202 4.0 5.0 0.00 0.00 2.23 39 1014.7
20210925185342 69 248 3.0 4.0 0.00 0.00 2.23 40 1014.7
20210925184842 68 338 2.0 5.0 0.00 0.00 2.23 39 1014.7
20210925184342 68 248 3.0 9.0 0.00 0.00 2.23 40 1014.7
20210925183342 67 180 3.0 8.0 0.00 0.00 2.23 39 1015.7
20210925182842 67 270 6.0 6.0 0.00 0.00 2.23 41 1014.7
20210925181341 65 270 4.0 6.0 0.00 0.00 2.23 43 1015.7
20210925180841 65 180 3.0 6.0 0.00 0.00 2.23 42 1015.7
20210925180341 65 248 3.0 6.0 0.00 0.00 2.23 43 1015.7
20210925175901 65 248 3.0 4.0 0.00 0.00 2.23 44 1015.7
20210925175341 65 202 3.0 6.0 0.00 0.00 2.23 44 1015.7
20210925174421 65 202 5.0 9.0 0.00 0.00 2.23 46 1015.7
20210925173341 64 292 3.0 5.0 0.00 0.00 2.23 45 1015.7
20210925172841 64 248 3.0 12.0 0.00 0.00 2.23 45 1015.7
20210925171841 63 202 3.0 5.0 0.00 0.00 2.23 48 1014.7
20210925170901 63 225 4.0 4.0 0.00 0.00 2.23 49 1015.7
20210925170341 63 202 3.0 3.0 0.00 0.00 2.23 49 1015.7
20210925165841 63 225 2.0 4.0 0.00 0.00 2.23 51 1015.7
20210925165341 63 248 3.0 5.0 0.00 0.00 2.23 51 1015.7
20210925164341 62 158 3.0 5.0 0.00 0.00 2.23 52 1015.7
20210925163841 62 202 2.0 3.0 0.00 0.00 2.23 52 1015.7
20210925162841 62 338 2.0 4.0 0.00 0.00 2.23 52 1015.7
20210925162341 62 315 2.0 4.0 0.00 0.00 2.23 54 1015.7
20210925161841 61 90 2.0 4.0 0.00 0.00 2.23 54 1015.7
20210925160840 60 292 4.0 5.0 0.00 0.00 2.23 55 1015.7
20210925154840 60 248 4.0 4.0 0.00 0.00 2.23 56 1016.7
20210925154340 59 225 1.0 5.0 0.00 0.00 2.23 59 1016.7
20210925153400 58 270 1.0 6.0 0.00 0.00 2.23 61 1016.7
20210925151900 57 338 4.0 4.0 0.00 0.00 2.23 64 1015.7
20210925151340 57 248 3.0 5.0 0.00 0.00 2.23 65 1015.7
20210925150340 57 248 2.0 4.0 0.00 0.00 2.23 65 1015.7
20210925143340 54 225 2.0 3.0 0.00 0.00 2.23 72 1015.7
20210925142840 53 225 2.0 4.0 0.00 0.00 2.23 72 1015.7
20210925141840 52 292 2.0 3.0 0.00 0.00 2.23 76 1015.7
20210925141340 52 202 0.0 3.0 0.00 0.00 2.23 79 1015.7
20210925133840 46 180 3.0 3.0 0.00 0.00 2.23 90 1014.7
20210925132359 43 180 2.0 3.0 0.00 0.00 2.23 91 1015.7
20210925130839 41 202 3.0 3.0 0.00 0.00 2.23 92 1014.7
20210925125839 40 202 1.0 3.0 0.00 0.00 2.23 92 1014.7
20210925125339 40 158 0.0 2.0 0.00 0.00 2.23 91 1014.7
20210925124839 39 180 2.0 2.0 0.00 0.00 2.23 91 1014.7
20210925124359 39 202 2.0 2.0 0.00 0.00 2.23 91 1014.7
20210925123839 39 180 2.0 2.0 0.00 0.00 2.23 91 1014.7
20210925120839 39 180 0.0 0.0 0.00 0.00 2.23 91 1015.7
20210925120339 39 180 0.0 0.0 0.00 0.00 2.23 91 1015.7
20210925115859 39 180 0.0 0.0 0.00 0.00 2.23 91 1015.7
20210925114339 39 180 0.0 0.0 0.00 0.00 2.23 91 1015.7
20210925112859 40 180 0.0 1.0 0.00 0.00 2.23 91 1014.7
20210925112359 40 180 0.0 1.0 0.00 0.00 2.23 91 1015.7
20210925111338 40 180 2.0 2.0 0.00 0.00 2.23 91 1015.7
20210925110859 40 202 2.0 3.0 0.00 0.00 2.23 92 1014.7
20210925110338 40 202 1.0 2.0 0.00 0.00 2.23 92 1014.7
20210925105838 40 202 2.0 2.0 0.00 0.00 2.23 92 1014.7
20210925104838 40 180 0.0 0.0 0.00 0.00 2.23 92 1015.7
20210925104438 40 180 0.0 0.0 0.00 0.00 2.23 92 1015.7
20210925101338 40 180 0.0 0.0 0.00 0.00 2.23 92 1015.7
20210925094838 41 180 0.0 0.0 0.00 0.00 2.23 92 1015.7
20210925094338 41 180 0.0 0.0 0.00 0.00 2.23 92 1015.7
20210925093838 41 180 0.0 0.0 0.00 0.00 2.23 92 1015.7
20210925092838 41 180 0.0 1.0 0.00 0.00 2.23 92 1015.7
20210925092338 41 180 0.0 1.0 0.00 0.00 2.23 92 1015.7
20210925090857 41 180 0.0 0.0 0.00 0.00 2.23 92 1015.7
20210925085338 42 180 2.0 3.0 0.00 0.00 2.23 92 1015.7
20210925084837 42 202 2.0 3.0 0.00 0.00 2.23 92 1015.7
20210925084337 42 180 2.0 2.0 0.00 0.00 2.23 92 1015.7
20210925083337 42 202 0.0 2.0 0.00 0.00 2.23 92 1015.7
20210925082837 42 180 2.0 2.0 0.00 0.00 2.23 92 1015.7
20210925082337 42 180 1.0 2.0 0.00 0.00 2.23 92 1015.7
20210925081337 42 180 0.0 2.0 0.00 0.00 2.23 92 1015.7
20210925080857 42 180 0.0 0.0 0.00 0.00 2.23 92 1015.7
20210925080337 42 180 0.0 1.0 0.00 0.00 2.23 92 1015.7
20210925075857 42 180 0.0 2.0 0.00 0.00 2.23 92 1015.7
20210925075337 43 202 2.0 2.0 0.00 0.00 2.23 93 1014.7
20210925074837 43 202 2.0 2.0 0.00 0.00 2.23 92 1014.7
20210925074337 43 180 2.0 2.0 0.00 0.00 2.23 93 1014.7
20210925073837 43 180 0.0 2.0 0.00 0.00 2.23 93 1015.7
20210925073336 43 202 0.0 0.0 0.00 0.00 2.23 93 1015.7
20210925072857 44 202 2.0 2.0 0.00 0.00 2.23 93 1015.7
20210925072336 44 202 2.0 2.0 0.00 0.00 2.23 93 1015.7
20210925071836 44 202 1.0 2.0 0.00 0.00 2.23 93 1015.7
20210925071336 44 202 2.0 2.0 0.00 0.00 2.23 93 1014.7
20210925070836 44 202 1.0 2.0 0.00 0.00 2.23 93 1014.7
20210925065336 45 202 2.0 2.0 0.00 0.00 2.23 93 1015.7
20210925064856 45 180 2.0 2.0 0.00 0.00 2.23 93 1015.7
20210925063836 45 202 2.0 2.0 0.00 0.00 2.23 93 1014.7
20210925062856 46 202 1.0 2.0 0.00 0.00 2.23 93 1015.7
20210925062356 46 202 2.0 2.0 0.00 0.00 2.23 93 1015.7
20210925061836 46 202 2.0 2.0 0.00 0.00 2.23 93 1015.7
20210925061356 46 202 2.0 2.0 0.00 0.00 2.23 93 1015.7
20210925060836 46 202 1.0 2.0 0.00 0.00 2.23 94 1015.7
20210925060336 46 202 1.0 3.0 0.00 0.00 2.23 94 1015.7
20210925055856 46 202 2.0 3.0 0.00 0.00 2.23 94 1015.7
20210925054835 46 248 0.0 2.0 0.00 0.00 2.23 95 1015.7
20210925054416 46 225 2.0 2.0 0.00 0.00 2.23 95 1015.7
20210925053836 46 225 2.0 2.0 0.00 0.00 0.00 96 1014.7
20210925053355 46 225 2.0 2.0 0.00 0.00 0.00 96 1014.7
20210925052835 46 202 0.0 1.0 0.00 0.00 0.00 97 1015.7
20210925051835 46 180 2.0 2.0 0.00 0.00 0.00 97 1015.7
20210925051415 46 180 2.0 2.0 0.00 0.00 0.00 97 1015.7
20210925050835 46 180 1.0 2.0 0.00 0.00 0.00 98 1016.7
20210925045835 46 180 0.0 2.0 0.00 0.00 2.23 98 1016.7
20210925044835 46 180 0.0 0.0 0.00 0.00 2.23 98 1015.7
20210925044355 46 180 0.0 2.0 0.00 0.00 2.23 98 1015.7
20210925041855 47 180 0.0 0.0 0.00 0.00 2.23 98 1015.7
20210925041335 47 180 0.0 0.0 0.00 0.00 2.23 98 1015.7
20210925040835 47 180 0.0 0.0 0.00 0.00 2.23 98 1015.7
20210925040355 47 180 0.0 2.0 0.00 0.00 2.23 98 1015.7
20210925035835 47 180 1.0 2.0 0.00 0.00 2.23 98 1015.7
20210925033834 47 180 0.0 0.0 0.00 0.00 2.23 98 1015.7
20210925033334 47 180 0.0 0.0 0.00 0.00 2.23 98 1015.7
20210925032834 48 180 0.0 0.0 0.00 0.00 2.23 98 1015.7
20210925032334 48 180 0.0 0.0 0.00 0.00 2.23 98 1015.7
20210925031834 48 180 0.0 0.0 0.00 0.00 2.23 98 1015.7
20210925031334 48 180 0.0 0.0 0.00 0.00 2.23 98 1015.7
20210925030834 48 180 0.0 0.0 0.00 0.00 2.23 98 1014.7
20210925030334 48 180 0.0 0.0 0.00 0.00 2.23 98 1014.7
20210925025354 49 180 0.0 0.0 0.00 0.00 2.23 98 1015.7
20210925024334 49 180 0.0 0.0 0.00 0.00 2.23 98 1015.7
20210925023354 49 180 0.0 0.0 0.00 0.00 2.23 98 1014.7
20210925022834 49 180 0.0 0.0 0.00 0.00 2.23 98 1014.7
20210925022334 49 180 0.0 0.0 0.00 0.00 2.23 98 1015.7
20210925021854 49 180 0.0 0.0 0.00 0.00 2.23 98 1015.7
20210925021334 50 180 0.0 0.0 0.00 0.00 2.23 98 1015.7
20210925020834 50 180 0.0 0.0 0.00 0.00 2.23 98 1014.7
20210925020334 50 180 0.0 0.0 0.00 0.00 2.23 98 1014.7
20210925014854 50 180 0.0 0.0 0.00 0.00 2.23 98 1014.7
20210925012333 52 202 0.0 0.0 0.00 0.00 2.23 98 1013.7
20210925011833 52 202 0.0 0.0 0.00 0.00 2.23 98 1013.7
20210925011333 52 202 0.0 0.0 0.00 0.00 2.23 98 1013.7
20210925010853 52 202 0.0 0.0 0.00 0.00 2.23 98 1013.7
20210925004333 53 202 2.0 2.0 0.00 0.00 2.23 98 1013.7
20210925003833 53 202 0.0 0.0 0.00 0.00 2.23 98 1013.7
20210925003333 53 202 0.0 0.0 0.00 0.00 2.23 98 1013.7
20210925001833 54 202 0.0 0.0 0.00 0.00 2.23 98 1013.7
20210925001333 54 202 0.0 0.0 0.00 0.00 2.23 98 1013.7
20210925000833 54 202 0.0 0.0 0.00 0.00 2.23 98 1013.7
20210925000333 55 202 0.0 0.0 0.00 0.00 2.23 98 1013.7
20210924235913 55 202 0.0 0.0 0.00 0.00 2.23 98 1013.7
20210924234332 56 338 0.0 0.0 0.00 0.00 2.23 98 1012.8